createdAt,value
2022-12-11T00:01:51.409Z,2.93
2022-12-11T00:04:21.922Z,2.88
2022-12-11T00:06:52.416Z,2.84
2022-12-11T00:09:23.715Z,2.81
2022-12-11T00:11:54.222Z,2.79
2022-12-11T00:14:24.748Z,2.77
2022-12-11T00:16:55.319Z,2.74
2022-12-11T00:19:26.193Z,2.71
2022-12-11T00:21:56.625Z,2.67
2022-12-11T00:24:27.114Z,2.65
2022-12-11T00:26:57.862Z,2.60
2022-12-11T00:29:28.356Z,2.57
2022-12-11T00:31:58.929Z,2.54
2022-12-11T00:34:29.974Z,2.53
2022-12-11T00:37:00.611Z,2.57
2022-12-11T00:39:31.027Z,2.59
2022-12-11T00:42:01.474Z,2.63
2022-12-11T00:44:32.002Z,2.66
2022-12-11T00:47:02.505Z,2.65
2022-12-11T00:49:33.269Z,2.64
2022-12-11T00:52:03.803Z,2.66
2022-12-11T00:54:34.890Z,2.69
2022-12-11T00:57:05.534Z,2.68
2022-12-11T00:59:36.109Z,2.67
2022-12-11T01:02:06.548Z,2.65
2022-12-11T01:04:39.112Z,2.63
2022-12-11T01:07:09.512Z,2.64
2022-12-11T01:09:57.422Z,2.63
2022-12-11T01:12:28.735Z,2.60
2022-12-11T01:14:59.250Z,2.56
2022-12-11T01:17:29.722Z,2.52
2022-12-11T01:20:00.157Z,2.47
2022-12-11T01:22:30.979Z,2.46
2022-12-11T01:25:01.402Z,2.45
2022-12-11T01:27:31.830Z,2.51
2022-12-11T01:30:02.327Z,2.56
2022-12-11T01:32:34.499Z,2.62
2022-12-11T01:35:05.741Z,2.67
2022-12-11T01:37:36.283Z,2.70
2022-12-11T01:40:09.192Z,2.71
2022-12-11T01:42:40.033Z,2.74
2022-12-11T01:45:32.003Z,2.75
2022-12-11T01:48:09.535Z,2.73
2022-12-11T01:50:45.127Z,2.72
2022-12-11T01:53:21.757Z,2.70
2022-12-11T01:55:56.163Z,2.67
2022-12-11T01:58:30.807Z,2.66
2022-12-11T02:01:02.094Z,2.65
2022-12-11T02:03:32.770Z,2.62
2022-12-11T02:06:03.535Z,2.58
2022-12-11T02:08:34.225Z,2.51
2022-12-11T02:11:13.657Z,2.43
2022-12-11T02:13:51.682Z,2.38
2022-12-11T02:16:27.344Z,2.35
2022-12-11T02:19:04.176Z,2.32
2022-12-11T02:21:40.368Z,2.29
2022-12-11T02:24:42.156Z,2.35
2022-12-11T02:27:24.894Z,2.38
2022-12-11T02:30:00.033Z,2.39
2022-12-11T02:32:36.967Z,2.37
2022-12-11T02:35:14.757Z,2.38
2022-12-11T02:37:49.182Z,2.39
2022-12-11T02:40:25.851Z,2.41
2022-12-11T02:42:59.190Z,2.41
2022-12-11T02:45:32.219Z,2.39
2022-12-11T02:48:06.613Z,2.39
2022-12-11T02:50:40.431Z,2.37
2022-12-11T02:53:13.875Z,2.33
2022-12-11T02:55:48.781Z,2.27
2022-12-11T02:58:23.280Z,2.20
2022-12-11T03:00:53.855Z,2.14
2022-12-11T03:03:24.414Z,2.10
2022-12-11T03:05:55.329Z,2.05
2022-12-11T03:08:26.328Z,2.02
2022-12-11T03:10:56.898Z,1.99
2022-12-11T03:13:27.406Z,1.94
2022-12-11T03:16:13.627Z,1.90
2022-12-11T03:18:52.225Z,1.91
2022-12-11T03:21:29.735Z,1.94
2022-12-11T03:24:08.047Z,1.94
2022-12-11T03:26:43.494Z,1.99
2022-12-11T03:29:21.057Z,2.06
2022-12-11T03:31:57.725Z,2.11
2022-12-11T03:34:32.484Z,2.14
2022-12-11T03:37:04.457Z,2.17
2022-12-11T03:39:38.902Z,2.18
2022-12-11T03:42:13.130Z,2.19
2022-12-11T03:44:48.692Z,2.17
2022-12-11T03:47:22.561Z,2.16
2022-12-11T03:49:55.981Z,2.13
2022-12-11T03:52:29.023Z,2.08
2022-12-11T03:55:02.943Z,2.03
2022-12-11T03:57:37.269Z,1.98
2022-12-11T04:00:12.231Z,1.97
2022-12-11T04:02:43.123Z,1.94
2022-12-11T04:05:14.588Z,1.88
2022-12-11T04:07:45.154Z,1.81
2022-12-11T04:10:15.890Z,1.77
2022-12-11T04:12:46.379Z,1.82
2022-12-11T04:15:17.087Z,1.83
2022-12-11T04:18:13.470Z,1.82
2022-12-11T04:21:01.353Z,1.85
2022-12-11T04:23:50.041Z,1.92
2022-12-11T04:26:21.927Z,1.98
2022-12-11T04:28:52.947Z,2.00
2022-12-11T04:31:25.247Z,2.03
2022-12-11T04:33:55.803Z,2.05
2022-12-11T04:36:26.255Z,2.05
2022-12-11T04:38:56.688Z,2.06
2022-12-11T04:41:27.176Z,2.09
2022-12-11T04:43:57.587Z,2.08
2022-12-11T04:46:28.037Z,2.03
2022-12-11T04:49:00.250Z,1.97
2022-12-11T04:51:31.028Z,1.91
2022-12-11T04:54:02.040Z,1.85
2022-12-11T04:56:32.487Z,1.80
2022-12-11T04:59:03.486Z,1.74
2022-12-11T05:01:33.999Z,1.66
2022-12-11T05:04:04.594Z,1.58
2022-12-11T05:06:35.054Z,1.55
2022-12-11T05:09:05.627Z,1.52
2022-12-11T05:11:37.354Z,1.57
2022-12-11T05:14:07.870Z,1.57
2022-12-11T05:16:38.433Z,1.58
2022-12-11T05:19:08.866Z,1.58
2022-12-11T05:21:39.323Z,1.55
2022-12-11T05:24:11.122Z,1.59
2022-12-11T05:26:41.549Z,1.60
2022-12-11T05:29:12.301Z,1.59
2022-12-11T05:31:42.833Z,1.61
2022-12-11T05:34:13.369Z,1.61
2022-12-11T05:36:43.823Z,1.58
2022-12-11T05:39:14.622Z,1.57
2022-12-11T05:41:45.165Z,1.56
2022-12-11T05:44:15.992Z,1.53
2022-12-11T05:46:46.480Z,1.52
2022-12-11T05:49:19.855Z,1.50
2022-12-11T05:51:50.763Z,1.47
2022-12-11T05:54:21.178Z,1.44
2022-12-11T05:56:52.231Z,1.43
2022-12-11T05:59:23.446Z,1.41
2022-12-11T06:01:53.957Z,1.39
2022-12-11T06:04:24.466Z,1.36
2022-12-11T06:06:56.298Z,1.32
2022-12-11T06:09:26.763Z,1.29
2022-12-11T06:11:57.177Z,1.28
2022-12-11T06:14:27.655Z,1.34
2022-12-11T06:16:58.093Z,1.38
2022-12-11T06:19:31.998Z,1.40
2022-12-11T06:22:07.063Z,1.44
2022-12-11T06:24:37.537Z,1.50
2022-12-11T06:27:09.156Z,1.53
2022-12-11T06:29:39.561Z,1.56
2022-12-11T06:32:10.503Z,1.60
2022-12-11T06:34:40.925Z,1.59
2022-12-11T06:37:11.843Z,1.59
2022-12-11T06:39:42.236Z,1.57
2022-12-11T06:42:13.453Z,1.57
2022-12-11T06:44:43.892Z,1.56
2022-12-11T06:47:14.642Z,1.54
2022-12-11T06:49:45.061Z,1.52
2022-12-11T06:52:18.569Z,1.49
2022-12-11T06:54:49.580Z,1.48
2022-12-11T06:57:20.458Z,1.43
2022-12-11T06:59:51.008Z,1.37
2022-12-11T07:02:22.385Z,1.31
2022-12-11T07:04:55.297Z,1.27
2022-12-11T07:07:26.013Z,1.23
2022-12-11T07:09:56.449Z,1.20
2022-12-11T07:12:26.887Z,1.18
2022-12-11T07:14:58.350Z,1.15
2022-12-11T07:17:29.458Z,1.13
2022-12-11T07:20:00.208Z,1.13
2022-12-11T07:22:31.033Z,1.18
2022-12-11T07:25:01.676Z,1.22
2022-12-11T07:27:32.178Z,1.23
2022-12-11T07:30:02.693Z,1.28
2022-12-11T07:32:33.194Z,1.29
2022-12-11T07:35:03.984Z,1.27
2022-12-11T07:37:34.410Z,1.30
2022-12-11T07:40:05.352Z,1.33
2022-12-11T07:42:35.882Z,1.34
2022-12-11T07:45:07.540Z,1.32
2022-12-11T07:47:38.002Z,1.31
2022-12-11T07:50:10.667Z,1.31
2022-12-11T07:52:41.115Z,1.27
2022-12-11T07:55:12.721Z,1.26
2022-12-11T07:57:43.367Z,1.24
2022-12-11T08:00:15.381Z,1.20
2022-12-11T08:02:45.892Z,1.14
2022-12-11T08:05:16.722Z,1.11
2022-12-11T08:07:47.249Z,1.08
2022-12-11T08:10:18.344Z,1.03
2022-12-11T08:12:48.749Z,0.98
2022-12-11T08:15:19.506Z,0.95
2022-12-11T08:17:49.953Z,0.94
2022-12-11T08:20:20.510Z,0.93
2022-12-11T08:22:55.922Z,0.91
2022-12-11T08:25:29.449Z,0.87
2022-12-11T08:27:59.896Z,0.88
2022-12-11T08:30:30.547Z,1.00
2022-12-11T08:33:01.428Z,1.09
2022-12-11T08:35:31.896Z,1.18
2022-12-11T08:38:02.384Z,1.27
2022-12-11T08:40:32.847Z,1.36
2022-12-11T08:43:03.302Z,1.44
2022-12-11T08:45:33.763Z,1.50
2022-12-11T08:48:04.913Z,1.53
2022-12-11T08:50:35.323Z,1.49
2022-12-11T08:53:06.639Z,1.44
2022-12-11T08:55:37.214Z,1.42
2022-12-11T08:58:07.723Z,1.43
2022-12-11T09:00:38.483Z,1.43
2022-12-11T09:03:12.971Z,1.45
2022-12-11T09:05:43.843Z,1.45
2022-12-11T09:08:14.603Z,1.42
2022-12-11T09:10:45.244Z,1.38
2022-12-11T09:13:16.059Z,1.38
2022-12-11T09:15:46.542Z,1.38
2022-12-11T09:18:17.011Z,1.37
2022-12-11T09:20:47.570Z,1.37
2022-12-11T09:23:18.035Z,1.37
2022-12-11T09:25:48.595Z,1.31
2022-12-11T09:28:20.102Z,1.24
2022-12-11T09:30:50.925Z,1.14
2022-12-11T09:33:21.413Z,1.09
2022-12-11T09:36:01.093Z,1.05
2022-12-11T09:38:33.298Z,1.05
2022-12-11T09:41:16.555Z,1.03
2022-12-11T09:43:51.788Z,1.00
2022-12-11T09:46:24.823Z,1.01
2022-12-11T09:48:55.960Z,0.99
2022-12-11T09:51:30.751Z,0.96
2022-12-11T09:54:04.690Z,0.95
2022-12-11T09:56:40.452Z,0.96
2022-12-11T09:59:22.935Z,0.93
2022-12-11T10:02:04.607Z,0.90
2022-12-11T10:04:44.414Z,0.89
2022-12-11T10:07:22.621Z,0.84
2022-12-11T10:09:59.686Z,0.86
2022-12-11T10:12:43.804Z,0.86
2022-12-11T10:15:32.640Z,0.85
2022-12-11T10:18:05.524Z,0.85
2022-12-11T10:20:39.489Z,0.87
2022-12-11T10:23:22.210Z,0.86
2022-12-11T10:25:58.281Z,0.82
2022-12-11T10:28:30.809Z,0.82
2022-12-11T10:31:11.130Z,0.84
2022-12-11T10:33:51.164Z,0.85
2022-12-11T10:36:26.878Z,0.75
2022-12-11T10:38:57.472Z,0.68
2022-12-11T10:41:37.954Z,0.65
2022-12-11T10:44:18.549Z,0.62
2022-12-11T10:46:50.795Z,0.53
2022-12-11T10:49:26.466Z,0.49
2022-12-11T10:51:57.959Z,0.44
2022-12-11T10:54:38.234Z,0.42
2022-12-11T10:57:11.328Z,0.36
2022-12-11T10:59:47.441Z,0.29
2022-12-11T11:02:26.558Z,0.24
2022-12-11T11:04:58.766Z,0.22
2022-12-11T11:07:30.921Z,0.20
2022-12-11T11:10:15.997Z,0.20
2022-12-11T11:12:48.889Z,0.25
2022-12-11T11:15:19.724Z,0.31
2022-12-11T11:17:55.701Z,0.30
2022-12-11T11:20:28.456Z,0.35
2022-12-11T11:23:01.138Z,0.34
2022-12-11T11:25:33.926Z,0.31
2022-12-11T11:28:07.449Z,0.33
2022-12-11T11:30:40.882Z,0.32
2022-12-11T11:33:18.833Z,0.38
2022-12-11T11:35:56.789Z,0.42
2022-12-11T11:38:31.099Z,0.43
2022-12-11T11:41:15.219Z,0.46
2022-12-11T11:43:49.211Z,0.46
2022-12-11T11:46:25.235Z,0.48
2022-12-11T11:49:06.244Z,0.48
2022-12-11T11:51:40.971Z,0.47
2022-12-11T11:54:21.715Z,0.44
2022-12-11T11:56:53.792Z,0.37
2022-12-11T11:59:29.154Z,0.31
2022-12-11T12:02:00.595Z,0.24
2022-12-11T12:04:34.931Z,0.20
2022-12-11T12:07:23.372Z,0.14
2022-12-11T12:10:00.511Z,0.07
2022-12-11T12:12:42.070Z,0.01
2022-12-11T12:15:21.993Z,-0.04
2022-12-11T12:17:56.935Z,-0.05
2022-12-11T12:20:35.754Z,-0.02
2022-12-11T12:23:36.622Z,0.02
2022-12-11T12:26:16.792Z,0.04
2022-12-11T12:28:56.906Z,0.00
2022-12-11T12:31:56.520Z,0.07
2022-12-11T12:34:38.263Z,0.03
2022-12-11T12:37:18.558Z,0.04
2022-12-11T12:39:57.787Z,0.04
2022-12-11T12:42:39.725Z,0.02
2022-12-11T12:45:28.477Z,-0.01
2022-12-11T12:47:59.085Z,-0.05
2022-12-11T12:50:37.613Z,-0.06
2022-12-11T12:53:12.525Z,-0.05
2022-12-11T12:55:43.726Z,-0.10
2022-12-11T12:58:32.027Z,-0.13
2022-12-11T13:01:16.397Z,-0.09
2022-12-11T13:03:58.433Z,-0.11
2022-12-11T13:06:35.386Z,-0.12
2022-12-11T13:09:20.429Z,-0.18
2022-12-11T13:11:54.639Z,-0.25
2022-12-11T13:14:31.889Z,-0.31
2022-12-11T13:17:25.391Z,-0.37
2022-12-11T13:20:15.293Z,-0.34
2022-12-11T13:22:55.188Z,-0.34
2022-12-11T13:25:29.760Z,-0.40
2022-12-11T13:28:21.904Z,-0.40
2022-12-11T13:31:06.110Z,-0.37
2022-12-11T13:33:44.054Z,-0.42
2022-12-11T13:36:35.062Z,-0.46
2022-12-11T13:39:17.265Z,-0.40
2022-12-11T13:41:51.523Z,-0.34
2022-12-11T13:44:25.921Z,-0.28
2022-12-11T13:46:59.440Z,-0.17
2022-12-11T13:49:35.169Z,-0.11
2022-12-11T13:52:07.930Z,-0.06
2022-12-11T13:54:37.547Z,0.00
2022-12-11T13:57:20.922Z,0.00
2022-12-11T13:59:53.735Z,-0.05
2022-12-11T14:02:29.213Z,-0.08
2022-12-11T14:05:04.833Z,-0.09
2022-12-11T14:07:39.416Z,-0.12
2022-12-11T14:10:17.211Z,-0.12
2022-12-11T14:12:54.573Z,-0.17
2022-12-11T14:15:26.023Z,-0.22
2022-12-11T14:17:57.835Z,-0.24
2022-12-11T14:20:31.130Z,-0.31
2022-12-11T14:23:09.555Z,-0.40
2022-12-11T14:25:39.991Z,-0.44
2022-12-11T14:28:18.472Z,-0.46
2022-12-11T14:30:51.460Z,-0.52
2022-12-11T14:33:26.151Z,-0.55
2022-12-11T14:35:58.206Z,-0.58
2022-12-11T14:38:35.094Z,-0.62
2022-12-11T14:41:14.279Z,-0.66
2022-12-11T14:43:49.349Z,-0.65
2022-12-11T14:46:23.581Z,-0.67
2022-12-11T14:49:01.603Z,-0.66
2022-12-11T14:51:36.147Z,-0.64
2022-12-11T14:54:08.760Z,-0.57
2022-12-11T14:56:39.965Z,-0.54
2022-12-11T14:59:26.979Z,-0.52
2022-12-11T15:02:19.557Z,-0.48
2022-12-11T15:05:03.517Z,-0.44
2022-12-11T15:07:35.028Z,-0.39
2022-12-11T15:10:07.924Z,-0.32
2022-12-11T15:12:46.702Z,-0.28
2022-12-11T15:15:19.476Z,-0.31
2022-12-11T15:17:52.878Z,-0.39
2022-12-11T15:20:30.681Z,-0.43
2022-12-11T15:23:03.361Z,-0.48
2022-12-11T15:25:32.666Z,-0.56
2022-12-11T15:28:03.761Z,-0.62
2022-12-11T15:30:36.359Z,-0.68
2022-12-11T15:33:22.058Z,-0.68
2022-12-11T15:36:02.533Z,-0.72
2022-12-11T15:38:40.608Z,-0.76
2022-12-11T15:41:14.780Z,-0.79
2022-12-11T15:43:46.341Z,-0.81
2022-12-11T15:46:16.817Z,-0.85
2022-12-11T15:48:48.584Z,-0.85
2022-12-11T15:51:19.434Z,-0.88
2022-12-11T15:53:49.962Z,-0.90
2022-12-11T15:56:20.782Z,-0.91
2022-12-11T15:58:52.045Z,-0.93
2022-12-11T16:01:22.620Z,-0.91
2022-12-11T16:03:53.105Z,-0.89
2022-12-11T16:06:23.619Z,-0.81
2022-12-11T16:08:54.055Z,-0.79
2022-12-11T16:11:24.484Z,-0.78
2022-12-11T16:13:55.207Z,-0.79
2022-12-11T16:16:25.784Z,-0.76
2022-12-11T16:18:56.322Z,-0.72
2022-12-11T16:21:26.816Z,-0.67
2022-12-11T16:23:57.344Z,-0.68
2022-12-11T16:26:27.854Z,-0.70
2022-12-11T16:28:58.292Z,-0.74
2022-12-11T16:31:29.065Z,-0.76
2022-12-11T16:33:59.534Z,-0.78
2022-12-11T16:36:30.011Z,-0.83
2022-12-11T16:39:00.556Z,-0.86
2022-12-11T16:41:31.109Z,-0.92
2022-12-11T16:44:04.024Z,-0.94
2022-12-11T16:46:34.602Z,-0.92
2022-12-11T16:49:05.406Z,-0.93
2022-12-11T16:51:35.874Z,-0.95
2022-12-11T16:54:07.079Z,-0.97
2022-12-11T16:56:37.623Z,-0.96
2022-12-11T16:59:08.749Z,-0.93
2022-12-11T17:01:39.866Z,-0.87
2022-12-11T17:04:10.931Z,-0.82
2022-12-11T17:06:41.567Z,-0.68
2022-12-11T17:09:12.103Z,-0.60
2022-12-11T17:11:42.633Z,-0.53
2022-12-11T17:14:13.190Z,-0.47
2022-12-11T17:16:43.685Z,-0.39
2022-12-11T17:19:14.196Z,-0.31
2022-12-11T17:21:49.974Z,-0.27
2022-12-11T17:24:22.868Z,-0.29
2022-12-11T17:26:53.878Z,-0.27
2022-12-11T17:29:24.430Z,-0.33
2022-12-11T17:31:55.062Z,-0.41
2022-12-11T17:34:25.546Z,-0.41
2022-12-11T17:36:55.941Z,-0.46
2022-12-11T17:39:26.413Z,-0.46
2022-12-11T17:41:56.862Z,-0.45
2022-12-11T17:44:30.473Z,-0.46
2022-12-11T17:47:06.060Z,-0.46
2022-12-11T17:49:40.359Z,-0.44
2022-12-11T17:52:11.061Z,-0.42
2022-12-11T17:54:41.855Z,-0.43
2022-12-11T17:57:12.444Z,-0.44
2022-12-11T17:59:42.928Z,-0.51
2022-12-11T18:02:13.574Z,-0.58
2022-12-11T18:04:44.063Z,-0.64
2022-12-11T18:07:14.545Z,-0.62
2022-12-11T18:09:46.100Z,-0.59
2022-12-11T18:12:16.754Z,-0.49
2022-12-11T18:14:47.278Z,-0.45
2022-12-11T18:17:17.751Z,-0.41
2022-12-11T18:19:48.166Z,-0.37
2022-12-11T18:22:19.582Z,-0.38
2022-12-11T18:24:50.031Z,-0.40
2022-12-11T18:27:20.468Z,-0.44
2022-12-11T18:29:50.937Z,-0.45
2022-12-11T18:32:21.430Z,-0.48
2022-12-11T18:34:51.961Z,-0.46
2022-12-11T18:37:27.739Z,-0.42
2022-12-11T18:39:58.623Z,-0.41
2022-12-11T18:42:33.028Z,-0.42
2022-12-11T18:45:04.180Z,-0.48
2022-12-11T18:47:34.711Z,-0.50
2022-12-11T18:50:07.918Z,-0.49
2022-12-11T18:52:39.048Z,-0.48
2022-12-11T18:55:10.765Z,-0.48
2022-12-11T18:57:41.552Z,-0.42
2022-12-11T19:00:14.510Z,-0.37
2022-12-11T19:02:44.930Z,-0.35
2022-12-11T19:05:15.785Z,-0.26
2022-12-11T19:07:46.293Z,-0.23
2022-12-11T19:10:16.815Z,-0.19
2022-12-11T19:12:47.280Z,-0.17
2022-12-11T19:15:23.387Z,-0.20
2022-12-11T19:17:54.388Z,-0.18
2022-12-11T19:20:48.019Z,-0.14
2022-12-11T19:23:15.612Z,-0.13
2022-12-11T19:25:48.087Z,-0.12
2022-12-11T19:28:19.142Z,-0.13
2022-12-11T19:30:50.609Z,-0.16
2022-12-11T19:33:21.123Z,-0.20
2022-12-11T19:36:00.886Z,-0.24
2022-12-11T19:38:31.369Z,-0.35
2022-12-11T19:41:05.614Z,-0.42
2022-12-11T19:43:36.705Z,-0.43
2022-12-11T19:46:08.889Z,-0.45
2022-12-11T19:48:41.425Z,-0.38
2022-12-11T19:51:14.375Z,-0.31
2022-12-11T19:53:46.530Z,-0.29
2022-12-11T19:56:18.084Z,-0.24
2022-12-11T19:58:49.959Z,-0.22
2022-12-11T20:01:26.513Z,-0.31
2022-12-11T20:03:59.567Z,-0.41
2022-12-11T20:06:32.508Z,-0.41
2022-12-11T20:09:04.141Z,-0.43
2022-12-11T20:11:35.945Z,-0.44
2022-12-11T20:14:06.501Z,-0.45
2022-12-11T20:17:09.368Z,-0.50
2022-12-11T20:19:27.891Z,-0.56
2022-12-11T20:21:58.959Z,-0.62
2022-12-11T20:24:29.874Z,-0.64
2022-12-11T20:27:00.293Z,-0.63
2022-12-11T20:29:31.953Z,-0.61
2022-12-11T20:32:02.549Z,-0.63
2022-12-11T20:34:33.526Z,-0.64
2022-12-11T20:37:04.241Z,-0.57
2022-12-11T20:39:35.653Z,-0.57
2022-12-11T20:42:06.784Z,-0.56
2022-12-11T20:44:37.198Z,-0.48
2022-12-11T20:47:07.915Z,-0.41
2022-12-11T20:49:38.544Z,-0.34
2022-12-11T20:52:09.195Z,-0.27
2022-12-11T20:54:39.815Z,-0.21
2022-12-11T20:57:11.156Z,-0.15
2022-12-11T20:59:41.799Z,-0.17
2022-12-11T21:02:13.763Z,-0.26
2022-12-11T21:04:44.375Z,-0.29
2022-12-11T21:07:14.875Z,-0.31
2022-12-11T21:09:45.391Z,-0.40
2022-12-11T21:12:15.874Z,-0.51
2022-12-11T21:14:46.273Z,-0.55
2022-12-11T21:17:16.680Z,-0.58
2022-12-11T21:19:47.156Z,-0.57
2022-12-11T21:22:17.829Z,-0.55
2022-12-11T21:24:48.319Z,-0.53
2022-12-11T21:27:18.797Z,-0.58
2022-12-11T21:29:49.583Z,-0.60
2022-12-11T21:32:21.957Z,-0.58
2022-12-11T21:34:55.466Z,-0.57
2022-12-11T21:37:25.930Z,-0.53
2022-12-11T21:40:00.310Z,-0.46
2022-12-11T21:42:30.938Z,-0.42
2022-12-11T21:47:51.992Z,-0.39
2022-12-11T21:50:22.420Z,-0.45
2022-12-11T21:52:53.561Z,-0.50
2022-12-11T21:55:24.067Z,-0.51
2022-12-11T21:57:56.526Z,-0.53
2022-12-11T22:00:28.299Z,-0.55
2022-12-11T22:02:58.747Z,-0.64
2022-12-11T22:05:29.259Z,-0.66
2022-12-11T22:07:59.710Z,-0.65
2022-12-11T22:10:30.617Z,-0.55
2022-12-11T22:13:01.074Z,-0.53
2022-12-11T22:15:31.596Z,-0.51
2022-12-11T22:18:02.033Z,-0.49
2022-12-11T22:20:32.520Z,-0.46
2022-12-11T22:23:03.642Z,-0.46
2022-12-11T22:25:34.077Z,-0.49
2022-12-11T22:28:05.344Z,-0.51
2022-12-11T22:30:35.915Z,-0.52
2022-12-11T22:33:06.958Z,-0.58
2022-12-11T22:35:37.397Z,-0.63
2022-12-11T22:38:08.167Z,-0.67
2022-12-11T22:40:42.493Z,-0.69
2022-12-11T22:43:12.925Z,-0.69
2022-12-11T22:45:43.403Z,-0.71
2022-12-11T22:48:13.875Z,-0.78
2022-12-11T22:50:44.504Z,-0.75
2022-12-11T22:53:15.157Z,-0.72
2022-12-11T22:55:45.882Z,-0.68
2022-12-11T22:58:21.613Z,-0.65
2022-12-11T23:00:52.451Z,-0.60
2022-12-11T23:03:22.963Z,-0.54
2022-12-11T23:05:53.538Z,-0.47
2022-12-11T23:08:26.405Z,-0.47
2022-12-11T23:10:56.981Z,-0.48
2022-12-11T23:13:27.486Z,-0.47
2022-12-11T23:15:57.957Z,-0.47
2022-12-11T23:18:28.440Z,-0.47
2022-12-11T23:20:58.914Z,-0.51
2022-12-11T23:23:29.810Z,-0.54
2022-12-11T23:26:00.688Z,-0.53
2022-12-11T23:28:31.129Z,-0.51
2022-12-11T23:31:01.657Z,-0.48
2022-12-11T23:33:32.261Z,-0.45
2022-12-11T23:36:03.060Z,-0.41
2022-12-11T23:38:34.038Z,-0.35
2022-12-11T23:41:05.672Z,-0.32
2022-12-11T23:43:37.228Z,-0.31
2022-12-11T23:46:12.834Z,-0.24
2022-12-11T23:48:43.842Z,-0.17
2022-12-11T23:51:17.416Z,-0.11
2022-12-11T23:53:48.694Z,-0.11
2022-12-11T23:56:22.026Z,-0.15
2022-12-11T23:58:52.889Z,-0.22
